Aeroporto :
LOGIN :

Iscrizione | Disclaimer

   EN    FR    IT 

 










Sommario :    VFR   VFR Marginale   IFR   IFR Intensivo   IFR Molto Intensivo
Visibilità : 
Base nubi : 
>= 8 km
>= 3000ft
5 / 8 km
1000 / 3000 ft
1500m / 5 km
500 / 1000 ft
800 / 1500m
200 / 500 ft
< 800m
< 200 ft
Simboli :   Temporali  Nebbia  Neve Forte  Precipitazioni Forti  Vento > 20 kt
SIGMETs :   Varie  Temporali  Ghiacco  Turbolenza  Onda orograficha  Ceneri Vulcaniche






- Altitudine del aeroporto : 287 ft


LFRL - Lanveoc Poulmic

ULTIMO METAR :
  • 090830Z AUTO 02010KT 9999 OVC005 18/16 Q1018

METARs OBSOLETI :
  • 090800Z AUTO 03010KT 9999 OVC005 18/16 Q1018
  • 090730Z AUTO 02010KT 9999 OVC005 17/16 Q1018
  • 090700Z AUTO 01012KT 9999 OVC003 17/16 Q1018
  • 090630Z AUTO 01010KT 9000 OVC003 16/16 Q1018
  • 090600Z AUTO 01007KT 8000 OVC003 16/16 Q1018

Previsioni scadute.



MetMap, La meteo Aeronautica in un colpo d'occhio ! - Copyright ORBIFLY Dicembre 2007 - Disclaimer

ORBIFLY MET'MAP TEAM :

Programmazione e sviluppo : Alexandra Zaïnal
Concezione : Baudouin d'Aumeries
Aiuto per la programmazione : Marc-Olivier Méhu
Supporto tecnico e logistico : Manuel Goepfert
Aiuto per la traduzione : Arnaldo La Scala

Contatto : metmap@orbifly.com




FONTI E CREDITI :

   NOAA